Accueil
METAR-TAF:

METAR-TAF

Aéroports :

Aéroport de Milan Malpensa

Milan, Italie

latitude: 45-37N, longitude: 008-44E, altitude: 234 m

Observation

Le bulletin a été fait il y a 26 minutes, à 06:50 UTC
Vent 2 kt de nord/nord-est
Température 0°C
Humidité 100%
Pression 1019 hPa
Visibilité: 3500 m
brume

METAR: LIMC 170650Z 03002KT 3500 BR NSC 00/M00 Q1019 NOSIG

Heure: 08:16 (07:16 UTC)

Prévision

Le bulletin a été fait il y a 2 heures et 16 minutes, à 05:00 UTC
Prévision valable du 17 à 06 UTC au 18 à 12 UTC
Vent 5 kt de direction variable
Visibilité: 3000 m
Nuages fragmentés à une hauteur de 4000 ft
brume
Evoluant progressivement
du 17 à 10 UTC au 17 à 12 UTC
Visibilité 10 km ou plus

TAF: LIMC 170500Z 1706/1812 VRB05KT 3000 BR BKN040 BECMG 1710/1712 9999

Observations et prévisions météorologiques de plus de 4000 aéroports (messages METAR et TAF).

Les stations disponibles sont représentées par des disques jaunes et rouges sur la carte.

Passer la souris dessus pour voir le nom de la station.

Cliquer dessus pour voir les observations et prévisions météorologiques.

Pour changer de carte: cliquez sur les boutons verts avec une croix noire pour zoomer, sur le bouton vert avec un tiret pour effectuer un zoom arrière, ou sur les flèches vertes pour les cartes adjacentes.


METAR-TAF: